Ace, TX

3:38 PM CDT on October 23, 2014 (GMT -0500)
FM1988_Tempe Creek | Change Station
CLOSE
Current Station
Personal Weather Station
Location: Livingston, TX
Elevation: 118 ft
Nearby Weather Stations

Elev 118 ft 30.66 °N, 94.98 °W | Updated 0 second ago

Clear
Clear
81.3 °F
Feels Like 82 °F
N
0.0
Wind Variable Wind from SSW
Gusts 0.0 mph

Today
High -- | Low -- °F
--% Chance of Precip.
Yesterday
High -- | Low -- °F
Precip. -- in
7:27 AM 6:39 PM
Waning Crescent, 0% visible
Pressure 30.08 in
Visibility 7.0 miles
Clouds Clear
Heat Index 82 °F
Dew Point 63 °F
Humidity 53%
Rainfall 0.00 in
Snow Depth Not available.
UV 5 out of 12
Pollen 5.20 out of 12
Air Quality Not available.
Flu Activity Sporadic
METAR K6R3 232010Z AUTO 01003KT 7SM CLR 25/14 A3008 RMK AO2 T02470138

More Conditions Fewer Conditions

Pressure 30.08 in
Visibility 7.0 miles
Clouds Clear
Heat Index 82 °F
Dew Point 63 °F
Humidity 53%
Rainfall 0.00 in
Snow Depth Not available.
UV 5 out of 12
Pollen 5.20 out of 12
Air Quality Not available.
Flu Activity Sporadic
METAR K6R3 232010Z AUTO 01003KT 7SM CLR 25/14 A3008 RMK AO2 T02470138

More Conditions Fewer Conditions

10-Day Weather Forecast

Almanac

Astronomy

Oct. 23, 2014 Rise Set
Actual Time 7:27 AM CDT 6:39 PM CDT
Civil Twilight 7:02 AM CDT 7:04 PM CDT
Nautical Twilight 6:34 AM CDT 7:32 PM CDT
Astronomical Twilight 6:06 AM CDT 8:00 PM CDT
Moon 7:08 AM CDT 6:41 PM CDT
Length of Visible Light 12h 01m
Length of Day
11h 12m
Tomorrow will be 1m 43s shorter.
Waning Crescent, 0% of the Moon is Illuminated
Today
Waning Crescent
Oct 23
New
Oct 30
First Quarter
Nov 6
Full
Nov 14
Last Quarter

Today's Extremes

State Highs State Lows

Community

WunderPhotos

Upload Photos

1,764,361 photos uploaded!

WunderBlogs® & News

By Dr. Jeff Masters
Director of Meteorology, Weather Underground
By Kari Strenfel
Meteorologist, Weather Underground
By Christopher C. Burt
Weather Historian, Weather Underground
October 23, 2014
October 23, 2014
October 23, 2014

Nearby

Snow Depth

Station Depth Elevation
No new snow has been reported.

Earthquake Activity

City Distance Mag. Time & Date
No recent earthquake activity has been reported nearby.
Minimum magnitude displayed is 2.5.

Coastal Water Temperatures

Place Temperature
No Stations Reporting

Nearby Weather Stations